Elko New Market, Minnesota
Current Conditions -  °F | °C
As of 11:28 PM on Sunday 19 Oct 2014 (Local Time) from KLVN Reporting Station
Clear Clear  
Wind Chill: 55°   Ceiling: Unl
Heat Index: 55°   Visibility: 10mi
Dew Point: 43°   Wind: 12mph
Humidity: 63%   Direction: 310°NW
Pressure: 29.85"   Gusts: 17mph
Location:  44.56°N, 93.33°W
Report Text: KLVN 200428Z AUTO 31010G15KT 10SM CLR 13/06 A2985 RMK AO2
Loading
Personal Weather Stations






























Interactive Weather Map
Tropical Storm Tracking
New forecast layout! Learn more

10-Day Weather Forecast

Advertisements
Track Severe Weather on mobile